Portada
METAR-TAF:

METAR-TAF

Aeroports :

Kochi, Índia

latitud: 10-09-07N, longitud: 76-24-07E, altitud: 9 m

Observació

L'informe es va fer fa 32 minuts, a les 22:30 UTC
Vent calma
Temperatura 24°C
Humitat 100%
Pressió 1009 hPa
Visibilitat: 4000 m
Escasses núvols a una alçada de 1500 ft
Núvols disperses a una alçada de 8000 ft
boirina

METAR: VOCI 192230Z 00000KT 4000 BR FEW015 SCT080 24/24 Q1009 NOSIG

Hora: 04:32 (23:02 UTC)

Pronòstic

L'informe es va fer fa 3 hores i 2 minuts, a les 20:00 UTC
Pronòstic vàlid del 19 a les 21 UTC al 20 a les 06 UTC
Vent kt del Nord
Visibilitat: 3000 m
Núvols disperses a una alçada de 1500 ft
Núvols disperses a una alçada de 8000 ft
boirina
Evolucionant progressivament
l' 20 a les 03 UTC al 20 a les 04 UTC
Vent 5 kt del Oest/Nord-Oest
Visibilitat: 4000 m
Escasses núvols a una alçada de 1500 ft
Núvols disperses a una alçada de 1800 ft
calitja

TAF: VOCI 192000Z 1921/2006 00000KT 3000 BR SCT015 SCT080 BECMG 2003/2004 30005KT 4000 HZ FEW015 SCT018

Observacions i pronòstics meteorològics de més de 4000 aeroports (METAR i TAF).

Les estacions disponibles són els punts grocs i vermells al mapa.

Posi el ratolí al punt desitjat per veure el nom de l'estació.

Feu clic per veure les observacions i els pronòstics meteorològics.

Per canviar el mapa: feu clic els botons verds amb una creu de color negre per apropar; al botó verd amb un guió per allunyar la imatge; o en les fletxes verdes per a mapes adjacents.


METAR-TAF: